Montandon, PA (17850)

11:45 AM EDT del 27 Maggio 2015 (GMT -0400)
Windsor at Lewisburg | | Change Station
CLOSE
Current Station
Stazione meteo personale
Location: Lewisburg, PA
Altitudine: 545 ft
Stazioni meteo nelle vicinanze

Alt. 545 ft 40.94 °N, 76.89 °W | Updated 5 seconds ago

Molto nuvoloso
Molto nuvoloso
81.0 °F
Sembra 83 °F
N
6.5
Vento Variabile Vento da Sud
Gusts 6.5 mph

Oggi
Massima -- | Minima -- °F
--% Possibilità di precip.
Ieri
Massima -- | Minima -- °F
Precip. -- in
5:40 AM 8:29 PM
Gobba a ponente, 68% visible
Pressione 30.12 in
Visibilità 10.0 miglia
Nuvole Alcuni 2600 ft
Alcuni 12000 ft
Indice di calore 83 °F
Punto di rugiada 65 °F
Umidità 58%
Piovosità -999.00 in
Spessore del manto nevoso Non disponibile.
Raggi UV 8 fuori da 12
Polline 4.20 fuori da 12
Qualità dell'aria Non disponibile.
Flu Activity Sporadic
METAR KSEG 271453Z AUTO 19008KT 10SM FEW026 FEW120 27/19 A3013 RMK AO2 SLP198 T02720194 50002

More Conditions Fewer Conditions

Pressione 30.12 in
Visibilità 10.0 miglia
Nuvole Alcuni 2600 ft
Alcuni 12000 ft
Indice di calore 83 °F
Punto di rugiada 65 °F
Umidità 58%
Piovosità -999.00 in
Spessore del manto nevoso Non disponibile.
Raggi UV 8 fuori da 12
Polline 4.20 fuori da 12
Qualità dell'aria Non disponibile.
Flu Activity Sporadic
METAR KSEG 271453Z AUTO 19008KT 10SM FEW026 FEW120 27/19 A3013 RMK AO2 SLP198 T02720194 50002

More Conditions Fewer Conditions

10-Day Weather Forecast

Almanac

Astronomia

May. 27, 2015 Alba Tramonto
Ora attuale
Crepuscolo civile
Crepuscolo nautico
Crepuscolo astronomico
Luna
Estensione della luce visibile
Lunghezza del giorno
Tomorrow will be .
, % of the Moon is Illuminated

Gli estremi di oggi

State Highs State Lows

Community

WunderPhotos

Upload Photos

1,824,699 foto caricate!

WunderBlogs® & News

Nearby

Qualità dell'aria

  Qualità dell'aria Indice AQ Inquinante
Not available.

Profondità neve

Stazione Profondità Altitudine

Attività sismica

Città  Distanza Mag. Data & Ora
Minimo Magnitudo Mostrato è 2.5.

Temperature delle acque costiere

Località Temperatura

Stations

Stazioni meteo nelle vicinanze

Ubicazione della stazione Temp. Raffreddamento del vento Punto di rugiada Umidità Vento Precip. Alt. Aggiornato Tipo